createdAt,value
2022-08-20T00:01:02.043Z,59.54
2022-08-20T00:01:58.628Z,61.80
2022-08-20T00:02:58.668Z,60.93
2022-08-20T00:03:58.604Z,58.19
2022-08-20T00:04:58.652Z,62.50
2022-08-20T00:05:58.584Z,62.01
2022-08-20T00:06:58.574Z,61.38
2022-08-20T00:07:58.618Z,58.05
2022-08-20T00:08:58.587Z,61.95
2022-08-20T00:09:58.547Z,62.53
2022-08-20T00:10:58.537Z,59.90
2022-08-20T00:11:58.525Z,64.07
2022-08-20T00:12:58.519Z,64.31
2022-08-20T00:13:58.548Z,64.04
2022-08-20T00:14:58.499Z,64.20
2022-08-20T00:15:58.493Z,61.07
2022-08-20T00:17:00.048Z,62.09
2022-08-20T00:17:58.480Z,64.38
2022-08-20T00:18:58.460Z,60.77
2022-08-20T00:19:58.478Z,60.86
2022-08-20T00:20:58.441Z,63.59
2022-08-20T00:21:58.680Z,63.20
2022-08-20T00:22:58.419Z,65.14
2022-08-20T00:23:58.410Z,61.85
2022-08-20T00:24:58.439Z,62.11
2022-08-20T00:25:58.409Z,61.49
2022-08-20T00:26:58.381Z,59.59
2022-08-20T00:27:58.369Z,59.88
2022-08-20T00:28:58.359Z,57.05
2022-08-20T00:29:58.350Z,59.62
2022-08-20T00:30:58.383Z,64.45
2022-08-20T00:31:58.325Z,63.73
2022-08-20T00:32:59.318Z,63.23
2022-08-20T00:33:58.319Z,60.86
2022-08-20T00:34:58.314Z,60.84
2022-08-20T00:35:58.336Z,64.34
2022-08-20T00:36:58.286Z,62.56
2022-08-20T00:38:00.626Z,62.02
2022-08-20T00:38:59.272Z,63.59
2022-08-20T00:39:58.317Z,57.41
2022-08-20T00:40:58.252Z,62.47
2022-08-20T00:41:58.281Z,64.98
2022-08-20T00:42:58.230Z,64.94
2022-08-20T00:43:58.219Z,62.11
2022-08-20T00:44:58.206Z,60.44
2022-08-20T00:46:32.075Z,62.83
2022-08-20T00:46:58.258Z,59.46
2022-08-20T00:47:58.278Z,60.96
2022-08-20T00:48:58.244Z,61.46
2022-08-20T00:49:58.156Z,59.76
2022-08-20T00:50:58.152Z,60.08
2022-08-20T00:51:58.146Z,59.50
2022-08-20T00:52:58.156Z,61.30
2022-08-20T00:53:59.130Z,62.34
2022-08-20T00:54:58.126Z,64.61
2022-08-20T00:55:58.106Z,61.89
2022-08-20T00:56:58.093Z,63.68
2022-08-20T00:58:01.810Z,62.21
2022-08-20T00:58:58.084Z,62.11
2022-08-20T00:59:58.066Z,62.04
2022-08-20T01:00:58.059Z,65.55
2022-08-20T01:01:58.112Z,60.42
2022-08-20T01:02:58.069Z,60.81
2022-08-20T01:03:58.031Z,61.50
2022-08-20T01:04:58.023Z,63.30
2022-08-20T01:05:58.008Z,60.23
2022-08-20T01:06:58.004Z,61.40
2022-08-20T01:07:58.059Z,62.19
2022-08-20T01:08:58.015Z,60.37
2022-08-20T01:09:59.446Z,61.45
2022-08-20T01:10:57.965Z,58.49
2022-08-20T01:11:57.953Z,59.75
2022-08-20T01:12:59.511Z,59.22
2022-08-20T01:13:57.986Z,60.60
2022-08-20T01:14:57.937Z,60.34
2022-08-20T01:15:57.914Z,59.60
2022-08-20T01:16:57.908Z,61.60
2022-08-20T01:17:57.899Z,59.21
2022-08-20T01:18:57.892Z,60.36
2022-08-20T01:19:57.911Z,62.22
2022-08-20T01:20:57.871Z,61.63
2022-08-20T01:21:57.861Z,60.88
2022-08-20T01:22:57.852Z,59.91
2022-08-20T01:23:57.840Z,61.48
2022-08-20T01:24:57.858Z,59.91
2022-08-20T01:25:57.824Z,61.83
2022-08-20T01:26:57.815Z,60.75
2022-08-20T01:27:58.118Z,62.30
2022-08-20T01:28:57.791Z,59.12
2022-08-20T01:29:57.783Z,61.34
2022-08-20T01:30:57.813Z,61.81
2022-08-20T01:31:57.768Z,64.16
2022-08-20T01:32:57.751Z,61.88
2022-08-20T01:33:57.740Z,63.05
2022-08-20T01:34:57.730Z,62.48
2022-08-20T01:35:57.764Z,64.82
2022-08-20T01:36:57.714Z,62.06
2022-08-20T01:37:57.898Z,62.48
2022-08-20T01:38:57.696Z,61.75
2022-08-20T01:39:57.749Z,62.25
2022-08-20T01:40:57.668Z,64.38
2022-08-20T01:41:58.699Z,63.35
2022-08-20T01:42:59.201Z,63.49
2022-08-20T01:43:58.308Z,60.77
2022-08-20T01:44:57.649Z,63.69
2022-08-20T01:45:57.634Z,61.59
2022-08-20T01:46:57.960Z,60.40
2022-08-20T01:47:57.865Z,62.60
2022-08-20T01:48:57.607Z,62.94
2022-08-20T01:49:57.594Z,61.64
2022-08-20T01:50:57.581Z,62.57
2022-08-20T01:51:57.590Z,63.67
2022-08-20T01:52:57.635Z,63.44
2022-08-20T01:53:57.553Z,63.02
2022-08-20T01:54:57.543Z,60.91
2022-08-20T01:55:57.536Z,60.89
2022-08-20T01:56:57.527Z,62.74
2022-08-20T01:57:57.744Z,60.82
2022-08-20T01:58:58.956Z,62.58
2022-08-20T01:59:57.498Z,61.60
2022-08-20T02:00:57.488Z,58.87
2022-08-20T02:01:57.570Z,64.90
2022-08-20T02:02:57.477Z,62.45
2022-08-20T02:03:57.512Z,62.50
2022-08-20T02:04:57.451Z,62.60
2022-08-20T02:05:57.442Z,61.96
2022-08-20T02:06:57.873Z,64.56
2022-08-20T02:07:58.425Z,62.11
2022-08-20T02:08:57.445Z,65.42
2022-08-20T02:09:57.402Z,61.59
2022-08-20T02:10:57.394Z,60.04
2022-08-20T02:11:57.384Z,61.34
2022-08-20T02:12:57.373Z,60.87
2022-08-20T02:13:57.366Z,59.15
2022-08-20T02:14:57.426Z,59.34
2022-08-20T02:15:57.348Z,59.77
2022-08-20T02:16:57.336Z,62.49
2022-08-20T02:17:57.378Z,61.65
2022-08-20T02:18:57.312Z,62.91
2022-08-20T02:19:57.334Z,59.26
2022-08-20T02:20:57.296Z,63.72
2022-08-20T02:21:57.281Z,63.45
2022-08-20T02:22:57.274Z,62.84
2022-08-20T02:23:57.265Z,62.32
2022-08-20T02:24:57.257Z,57.74
2022-08-20T02:25:57.280Z,58.63
2022-08-20T02:26:57.236Z,62.79
2022-08-20T02:27:57.405Z,61.62
2022-08-20T02:28:57.217Z,64.42
2022-08-20T02:29:57.206Z,60.40
2022-08-20T02:30:57.236Z,62.76
2022-08-20T02:32:24.737Z,63.13
2022-08-20T02:32:58.177Z,59.36
2022-08-20T02:34:21.667Z,63.35
2022-08-20T02:34:58.162Z,60.74
2022-08-20T02:35:57.147Z,64.09
2022-08-20T02:36:57.200Z,61.97
2022-08-20T02:37:57.266Z,58.42
2022-08-20T02:38:57.123Z,58.61
2022-08-20T02:39:57.153Z,60.60
2022-08-20T02:40:57.121Z,60.27
2022-08-20T02:41:57.111Z,61.65
2022-08-20T02:42:57.079Z,60.11
2022-08-20T02:43:57.072Z,58.78
2022-08-20T02:44:57.059Z,60.80
2022-08-20T02:45:57.047Z,59.31
2022-08-20T02:46:57.086Z,63.23
2022-08-20T02:47:57.239Z,62.96
2022-08-20T02:48:57.024Z,60.22
2022-08-20T02:49:57.013Z,62.47
2022-08-20T02:50:57.004Z,58.78
2022-08-20T02:51:56.997Z,60.06
2022-08-20T02:52:57.000Z,63.58
2022-08-20T02:53:56.975Z,60.33
2022-08-20T02:54:56.965Z,61.52
2022-08-20T02:55:56.958Z,60.98
2022-08-20T02:56:56.955Z,58.26
2022-08-20T02:57:58.852Z,61.43
2022-08-20T02:58:56.923Z,61.19
2022-08-20T02:59:56.918Z,61.97
2022-08-20T03:00:56.967Z,62.86
2022-08-20T03:02:00.260Z,59.33
2022-08-20T03:02:56.898Z,60.99
2022-08-20T03:03:56.872Z,60.58
2022-08-20T03:04:56.862Z,59.47
2022-08-20T03:05:56.856Z,61.77
2022-08-20T03:06:56.848Z,62.49
2022-08-20T03:07:57.214Z,60.61
2022-08-20T03:08:56.824Z,62.51
2022-08-20T03:09:56.815Z,63.82
2022-08-20T03:10:56.807Z,64.33
2022-08-20T03:11:56.790Z,63.55
2022-08-20T03:12:56.850Z,61.08
2022-08-20T03:13:56.775Z,63.40
2022-08-20T03:14:56.765Z,63.84
2022-08-20T03:15:59.006Z,62.15
2022-08-20T03:16:57.751Z,64.49
2022-08-20T03:17:56.921Z,63.33
2022-08-20T03:18:56.743Z,61.72
2022-08-20T03:19:56.721Z,60.68
2022-08-20T03:20:56.711Z,62.20
2022-08-20T03:21:56.697Z,64.11
2022-08-20T03:22:56.692Z,64.74
2022-08-20T03:23:56.695Z,61.79
2022-08-20T03:24:56.669Z,64.65
2022-08-20T03:25:56.660Z,65.50
2022-08-20T03:26:56.649Z,63.89
2022-08-20T03:27:56.869Z,63.29
2022-08-20T03:28:56.649Z,64.42
2022-08-20T03:29:56.628Z,60.85
2022-08-20T03:30:56.623Z,69.46
2022-08-20T03:31:56.610Z,64.39
2022-08-20T03:32:56.602Z,62.58
2022-08-20T03:33:56.603Z,63.91
2022-08-20T03:34:56.577Z,60.78
2022-08-20T03:35:56.567Z,65.51
2022-08-20T03:36:56.557Z,64.27
2022-08-20T03:37:56.584Z,63.09
2022-08-20T03:38:56.553Z,61.36
2022-08-20T03:39:56.582Z,64.30
2022-08-20T03:40:56.522Z,64.76
2022-08-20T03:41:56.510Z,61.96
2022-08-20T03:42:56.501Z,62.19
2022-08-20T03:43:56.525Z,64.54
2022-08-20T03:44:59.162Z,63.71
2022-08-20T03:45:56.473Z,64.35
2022-08-20T03:46:56.473Z,64.31
2022-08-20T03:47:56.627Z,65.62
2022-08-20T03:48:59.936Z,65.01
2022-08-20T03:49:56.448Z,62.08
2022-08-20T03:50:56.424Z,66.01
2022-08-20T03:51:58.416Z,63.13
2022-08-20T03:52:56.403Z,66.97
2022-08-20T03:53:56.407Z,64.01
2022-08-20T03:54:56.396Z,64.59
2022-08-20T03:56:00.482Z,64.97
2022-08-20T03:56:58.367Z,61.03
2022-08-20T03:57:56.519Z,65.11
2022-08-20T03:58:56.351Z,63.85
2022-08-20T03:59:58.230Z,64.56
2022-08-20T04:00:56.362Z,65.73
2022-08-20T04:01:56.418Z,63.07
2022-08-20T04:02:56.313Z,64.92
2022-08-20T04:03:56.301Z,67.53
2022-08-20T04:04:56.329Z,65.03
2022-08-20T04:05:56.280Z,65.08
2022-08-20T04:06:56.286Z,66.01
2022-08-20T04:07:56.470Z,58.94
2022-08-20T04:08:57.250Z,65.26
2022-08-20T04:09:56.264Z,65.46
2022-08-20T04:10:56.263Z,68.22
2022-08-20T04:11:56.220Z,64.95
2022-08-20T04:12:56.208Z,64.54
2022-08-20T04:13:56.200Z,64.67
2022-08-20T04:14:56.189Z,64.46
2022-08-20T04:15:56.196Z,61.81
2022-08-20T04:16:56.171Z,67.10
2022-08-20T04:17:56.303Z,60.76
2022-08-20T04:19:01.647Z,62.35
2022-08-20T04:19:57.140Z,66.84
2022-08-20T04:20:56.169Z,66.34
2022-08-20T04:21:56.158Z,66.40
2022-08-20T04:22:58.673Z,63.33
2022-08-20T04:23:56.104Z,67.10
2022-08-20T04:24:56.090Z,64.20
2022-08-20T04:25:56.537Z,65.59
2022-08-20T04:26:56.097Z,66.70
2022-08-20T04:27:56.223Z,68.08
2022-08-20T04:28:56.054Z,66.94
2022-08-20T04:29:56.044Z,64.46
2022-08-20T04:30:56.034Z,64.13
2022-08-20T04:31:56.040Z,66.30
2022-08-20T04:32:56.030Z,67.58
2022-08-20T04:33:56.005Z,67.18
2022-08-20T04:34:56.008Z,65.89
2022-08-20T04:35:55.992Z,66.87
2022-08-20T04:36:56.004Z,66.94
2022-08-20T04:37:56.154Z,67.16
2022-08-20T04:38:55.968Z,64.34
2022-08-20T04:39:56.026Z,66.26
2022-08-20T04:40:55.938Z,65.88
2022-08-20T04:41:55.944Z,68.05
2022-08-20T04:42:55.917Z,65.78
2022-08-20T04:43:55.955Z,67.88
2022-08-20T04:44:55.903Z,65.38
2022-08-20T04:45:55.889Z,64.95
2022-08-20T04:46:55.894Z,66.56
2022-08-20T04:47:56.019Z,66.18
2022-08-20T04:48:55.860Z,63.07
2022-08-20T04:49:57.418Z,64.78
2022-08-20T04:50:55.844Z,65.96
2022-08-20T04:51:55.876Z,65.89
2022-08-20T04:52:55.824Z,67.15
2022-08-20T04:53:55.815Z,66.42
2022-08-20T04:54:55.805Z,66.87
2022-08-20T04:55:55.795Z,65.98
2022-08-20T04:56:55.824Z,65.97
2022-08-20T04:57:56.940Z,63.24
2022-08-20T04:58:55.772Z,65.02
2022-08-20T04:59:59.402Z,66.48
2022-08-20T05:00:56.774Z,66.92
2022-08-20T05:01:55.739Z,65.64
2022-08-20T05:02:55.788Z,63.85
2022-08-20T05:03:55.725Z,65.89
2022-08-20T05:04:55.715Z,66.38
2022-08-20T05:05:55.698Z,65.72
2022-08-20T05:06:55.710Z,65.00
2022-08-20T05:07:55.903Z,66.81
2022-08-20T05:08:55.671Z,64.15
2022-08-20T05:09:55.665Z,61.82
2022-08-20T05:11:06.658Z,64.57
2022-08-20T05:11:56.641Z,63.38
2022-08-20T05:12:57.377Z,62.63
2022-08-20T05:13:55.626Z,64.42
2022-08-20T05:14:55.627Z,62.62
2022-08-20T05:15:55.608Z,64.61
2022-08-20T05:16:55.601Z,62.94
2022-08-20T05:17:55.708Z,62.33
2022-08-20T05:18:55.595Z,62.59
2022-08-20T05:19:55.572Z,63.80
2022-08-20T05:20:55.561Z,61.61
2022-08-20T05:21:55.555Z,63.22
2022-08-20T05:22:55.543Z,65.11
2022-08-20T05:23:55.563Z,63.44
2022-08-20T05:24:55.524Z,65.18
2022-08-20T05:25:55.523Z,64.01
2022-08-20T05:26:55.507Z,64.88
2022-08-20T05:27:55.603Z,64.66
2022-08-20T05:28:58.487Z,65.08
2022-08-20T05:29:55.484Z,64.81
2022-08-20T05:30:55.472Z,64.97
2022-08-20T05:31:55.460Z,64.98
2022-08-20T05:32:55.448Z,63.72
2022-08-20T05:33:55.438Z,64.15
2022-08-20T05:34:55.446Z,67.54
2022-08-20T05:35:55.410Z,67.15
2022-08-20T05:36:56.410Z,64.42
2022-08-20T05:37:55.528Z,66.21
2022-08-20T05:38:55.387Z,69.43
2022-08-20T05:39:55.437Z,66.47
2022-08-20T05:40:55.371Z,64.97
2022-08-20T05:41:55.362Z,68.28
2022-08-20T05:42:55.365Z,65.74
2022-08-20T05:43:55.345Z,65.74
2022-08-20T05:44:55.366Z,65.00
2022-08-20T05:45:56.769Z,64.84
2022-08-20T05:46:56.311Z,66.05
2022-08-20T05:47:56.581Z,66.89
2022-08-20T05:48:55.294Z,65.45
2022-08-20T05:49:55.312Z,64.23
2022-08-20T05:50:55.273Z,69.24
2022-08-20T05:51:55.263Z,67.04
2022-08-20T05:52:55.302Z,63.87
2022-08-20T05:53:55.245Z,67.23
2022-08-20T05:54:55.238Z,66.25
2022-08-20T05:55:55.269Z,67.90
2022-08-20T05:56:55.219Z,69.17
2022-08-20T05:57:55.366Z,69.85
2022-08-20T05:58:55.197Z,68.63
2022-08-20T05:59:55.190Z,67.93
2022-08-20T06:00:55.352Z,67.72
2022-08-20T06:01:55.170Z,68.38
2022-08-20T06:02:55.161Z,64.88
2022-08-20T06:03:55.148Z,68.82
2022-08-20T06:04:56.093Z,68.79
2022-08-20T06:05:55.128Z,65.96
2022-08-20T06:06:55.134Z,66.39
2022-08-20T06:08:07.150Z,67.50
2022-08-20T06:08:56.101Z,68.49
2022-08-20T06:09:55.088Z,66.33
2022-08-20T06:10:55.078Z,63.95
2022-08-20T06:11:55.084Z,65.46
2022-08-20T06:12:55.060Z,64.82
2022-08-20T06:13:55.048Z,66.87
2022-08-20T06:14:55.041Z,66.49
2022-08-20T06:15:55.030Z,65.57
2022-08-20T06:16:57.868Z,68.46
2022-08-20T06:17:58.453Z,68.42
2022-08-20T06:18:54.996Z,65.28
2022-08-20T06:19:54.990Z,65.61
2022-08-20T06:20:54.980Z,66.93
2022-08-20T06:21:55.011Z,65.72
2022-08-20T06:22:54.959Z,65.53
2022-08-20T06:23:57.707Z,68.14
2022-08-20T06:24:54.945Z,65.93
2022-08-20T06:25:55.011Z,65.60
2022-08-20T06:26:54.920Z,69.29
2022-08-20T06:27:54.931Z,65.62
2022-08-20T06:28:54.909Z,67.66
2022-08-20T06:29:54.897Z,67.18
2022-08-20T06:30:54.880Z,70.14
2022-08-20T06:31:54.862Z,67.55
2022-08-20T06:32:55.881Z,67.62
2022-08-20T06:33:54.852Z,66.69
2022-08-20T06:34:54.845Z,66.97
2022-08-20T06:35:54.832Z,66.94
2022-08-20T06:36:54.839Z,68.22
2022-08-20T06:37:54.851Z,67.54
2022-08-20T06:38:54.821Z,68.38
2022-08-20T06:39:54.857Z,68.56
2022-08-20T06:40:54.784Z,67.24
2022-08-20T06:41:54.773Z,67.22
2022-08-20T06:42:54.778Z,69.49
2022-08-20T06:43:54.769Z,67.81
2022-08-20T06:44:54.743Z,64.56
2022-08-20T06:46:26.630Z,66.72
2022-08-20T06:46:54.725Z,66.94
2022-08-20T06:47:54.859Z,65.54
2022-08-20T06:48:54.722Z,65.52
2022-08-20T06:49:54.694Z,68.08
2022-08-20T06:50:54.691Z,68.33
2022-08-20T06:51:54.679Z,68.14
2022-08-20T06:52:54.685Z,68.80
2022-08-20T06:53:54.676Z,65.33
2022-08-20T06:54:54.645Z,68.20
2022-08-20T06:55:54.652Z,68.76
2022-08-20T06:56:54.633Z,65.47
2022-08-20T06:57:54.637Z,65.39
2022-08-20T06:58:54.624Z,65.62
2022-08-20T06:59:54.602Z,64.64
2022-08-20T07:00:54.664Z,68.67
2022-08-20T07:01:54.581Z,67.81
2022-08-20T07:02:54.580Z,64.51
2022-08-20T07:03:56.229Z,65.37
2022-08-20T07:04:54.551Z,63.34
2022-08-20T07:05:54.540Z,66.84
2022-08-20T07:06:54.531Z,64.38
2022-08-20T07:07:54.536Z,65.01
2022-08-20T07:08:54.525Z,66.78
2022-08-20T07:09:54.500Z,67.19
2022-08-20T07:10:54.484Z,67.84
2022-08-20T07:11:55.480Z,67.40
2022-08-20T07:12:54.489Z,65.09
2022-08-20T07:13:54.480Z,67.17
2022-08-20T07:14:54.455Z,66.92
2022-08-20T07:15:54.445Z,65.20
2022-08-20T07:16:54.439Z,67.50
2022-08-20T07:17:58.772Z,67.64
2022-08-20T07:18:56.433Z,67.32
2022-08-20T07:19:54.406Z,67.21
2022-08-20T07:20:54.396Z,66.10
2022-08-20T07:21:54.385Z,68.14
2022-08-20T07:22:54.391Z,67.19
2022-08-20T07:23:54.384Z,65.49
2022-08-20T07:24:54.360Z,66.36
2022-08-20T07:25:54.365Z,66.83
2022-08-20T07:26:56.894Z,68.84
2022-08-20T07:27:54.341Z,66.92
2022-08-20T07:28:54.330Z,66.23
2022-08-20T07:29:54.309Z,65.34
2022-08-20T07:30:56.859Z,66.58
2022-08-20T07:31:54.286Z,65.84
2022-08-20T07:32:54.289Z,66.87
2022-08-20T07:33:54.283Z,66.79
2022-08-20T07:34:54.259Z,68.26
2022-08-20T07:35:54.251Z,64.30
2022-08-20T07:36:54.238Z,68.07
2022-08-20T07:37:54.248Z,67.03
2022-08-20T07:38:54.239Z,68.80
2022-08-20T07:39:54.248Z,66.85
2022-08-20T07:40:54.200Z,68.07
2022-08-20T07:41:56.751Z,65.82
2022-08-20T07:42:54.198Z,66.22
2022-08-20T07:43:54.190Z,67.57
2022-08-20T07:44:54.169Z,64.81
2022-08-20T07:45:54.186Z,67.19
2022-08-20T07:46:54.155Z,67.78
2022-08-20T07:47:54.147Z,66.83
2022-08-20T07:48:54.147Z,65.71
2022-08-20T07:49:54.120Z,64.25
2022-08-20T07:50:54.108Z,64.00
2022-08-20T07:51:54.101Z,66.36
2022-08-20T07:52:55.327Z,64.24
2022-08-20T07:53:54.095Z,65.58
2022-08-20T07:54:54.067Z,65.84
2022-08-20T07:55:59.024Z,66.01
2022-08-20T07:56:55.051Z,63.71
2022-08-20T07:57:54.041Z,65.54
2022-08-20T07:58:54.074Z,63.25
2022-08-20T07:59:54.027Z,65.01
2022-08-20T08:00:54.043Z,66.20
2022-08-20T08:01:54.014Z,62.41
2022-08-20T08:02:53.993Z,64.42
2022-08-20T08:03:54.021Z,65.59
2022-08-20T08:04:53.969Z,64.13
2022-08-20T08:05:53.960Z,64.29
2022-08-20T08:06:53.955Z,63.94
2022-08-20T08:07:53.942Z,66.79
2022-08-20T08:08:53.939Z,63.16
2022-08-20T08:09:53.942Z,65.22
2022-08-20T08:10:53.916Z,63.88
2022-08-20T08:11:53.906Z,65.61
2022-08-20T08:12:53.899Z,64.12
2022-08-20T08:13:53.891Z,65.45
2022-08-20T08:14:53.893Z,65.28
2022-08-20T08:15:53.896Z,65.75
2022-08-20T08:16:53.856Z,66.22
2022-08-20T08:17:53.850Z,66.23
2022-08-20T08:18:53.857Z,63.68
2022-08-20T08:19:53.840Z,64.94
2022-08-20T08:20:53.819Z,64.35
2022-08-20T08:21:53.808Z,64.50
2022-08-20T08:22:53.824Z,64.80
2022-08-20T08:23:53.793Z,67.65
2022-08-20T08:24:57.236Z,66.24
2022-08-20T08:25:53.795Z,66.66
2022-08-20T08:26:53.762Z,67.26
2022-08-20T08:27:53.754Z,65.85
2022-08-20T08:28:53.741Z,65.64
2022-08-20T08:29:53.778Z,66.95
2022-08-20T08:30:53.723Z,67.13
2022-08-20T08:31:53.711Z,64.35
2022-08-20T08:32:53.699Z,66.12
2022-08-20T08:33:53.691Z,66.23
2022-08-20T08:34:53.720Z,67.51
2022-08-20T08:35:53.677Z,68.27
2022-08-20T08:36:53.668Z,68.16
2022-08-20T08:37:53.661Z,67.07
2022-08-20T08:38:53.648Z,63.85
2022-08-20T08:39:53.663Z,65.77
2022-08-20T08:40:53.875Z,65.07
2022-08-20T08:41:54.620Z,65.82
2022-08-20T08:42:53.630Z,63.46
2022-08-20T08:43:53.600Z,66.58
2022-08-20T08:44:53.592Z,63.31
2022-08-20T08:45:53.597Z,65.88
2022-08-20T08:46:53.573Z,65.27
2022-08-20T08:47:53.592Z,64.34
2022-08-20T08:48:53.559Z,65.41
2022-08-20T08:49:53.546Z,65.69
2022-08-20T08:50:54.806Z,64.95
2022-08-20T08:51:53.527Z,64.35
2022-08-20T08:52:53.522Z,65.36
2022-08-20T08:53:53.512Z,64.03
2022-08-20T08:54:53.501Z,64.70
2022-08-20T08:55:53.518Z,63.70
2022-08-20T08:56:53.492Z,63.87
2022-08-20T08:57:53.467Z,64.78
2022-08-20T08:58:53.460Z,63.42
2022-08-20T09:00:03.663Z,65.93
2022-08-20T09:00:57.460Z,65.30
2022-08-20T09:01:56.900Z,67.06
2022-08-20T09:02:53.634Z,64.93
2022-08-20T09:03:53.413Z,62.84
2022-08-20T09:04:53.403Z,65.28
2022-08-20T09:05:53.390Z,66.66
2022-08-20T09:06:53.398Z,65.00
2022-08-20T09:07:54.218Z,66.10
2022-08-20T09:08:53.370Z,65.95
2022-08-20T09:09:53.354Z,65.43
2022-08-20T09:10:53.350Z,63.53
2022-08-20T09:11:53.354Z,63.29
2022-08-20T09:12:53.328Z,64.49
2022-08-20T09:13:53.314Z,63.53
2022-08-20T09:14:53.330Z,64.14
2022-08-20T09:15:53.297Z,64.36
2022-08-20T09:16:53.703Z,65.18
2022-08-20T09:17:54.280Z,63.85
2022-08-20T09:18:53.270Z,63.94
2022-08-20T09:19:53.265Z,64.13
2022-08-20T09:20:53.249Z,62.42
2022-08-20T09:21:53.279Z,61.86
2022-08-20T09:22:53.303Z,62.65
2022-08-20T09:23:53.218Z,62.58
2022-08-20T09:24:53.211Z,61.92
2022-08-20T09:25:53.202Z,64.44
2022-08-20T09:26:53.223Z,63.32
2022-08-20T09:27:53.178Z,64.96
2022-08-20T09:28:54.185Z,64.37
2022-08-20T09:29:53.165Z,64.70
2022-08-20T09:30:53.158Z,65.91
2022-08-20T09:31:53.143Z,64.82
2022-08-20T09:32:53.195Z,66.53
2022-08-20T09:33:53.129Z,67.17
2022-08-20T09:34:53.116Z,66.43
2022-08-20T09:35:53.106Z,65.65
2022-08-20T09:36:53.101Z,66.26
2022-08-20T09:37:53.106Z,65.89
2022-08-20T09:38:53.080Z,65.14
2022-08-20T09:39:53.128Z,64.84
2022-08-20T09:40:53.061Z,65.67
2022-08-20T09:41:53.058Z,63.43
2022-08-20T09:42:53.119Z,62.11
2022-08-20T09:43:53.029Z,65.06
2022-08-20T09:44:53.021Z,65.05
2022-08-20T09:45:53.008Z,64.24
2022-08-20T09:46:53.005Z,63.71
2022-08-20T09:47:55.365Z,63.71
2022-08-20T09:48:52.986Z,63.43
2022-08-20T09:49:52.975Z,62.76
2022-08-20T09:50:52.962Z,61.47
2022-08-20T09:51:52.953Z,63.17
2022-08-20T09:52:52.944Z,65.37
2022-08-20T09:53:52.955Z,64.53
2022-08-20T09:54:52.925Z,63.58
2022-08-20T09:55:52.915Z,63.18
2022-08-20T09:56:52.906Z,63.13
2022-08-20T09:57:52.951Z,64.14
2022-08-20T09:58:52.921Z,65.43
2022-08-20T09:59:52.876Z,65.35
2022-08-20T10:00:52.866Z,63.03
2022-08-20T10:01:52.895Z,63.87
2022-08-20T10:02:52.879Z,63.80
2022-08-20T10:03:52.876Z,64.22
2022-08-20T10:04:52.828Z,65.58
2022-08-20T10:05:52.813Z,64.29
2022-08-20T10:06:52.806Z,62.62
2022-08-20T10:07:52.860Z,64.02
2022-08-20T10:08:52.788Z,63.47
2022-08-20T10:09:52.826Z,63.46
2022-08-20T10:10:52.773Z,66.30
2022-08-20T10:11:52.747Z,64.03
2022-08-20T10:12:55.093Z,62.22
2022-08-20T10:13:53.740Z,66.08
2022-08-20T10:14:52.793Z,64.05
2022-08-20T10:15:52.721Z,62.53
2022-08-20T10:16:52.711Z,64.55
2022-08-20T10:17:52.747Z,62.78
2022-08-20T10:18:52.702Z,64.68
2022-08-20T10:19:52.690Z,62.95
2022-08-20T10:20:52.688Z,63.74
2022-08-20T10:21:52.665Z,63.29
2022-08-20T10:22:52.646Z,63.89
2022-08-20T10:23:52.642Z,64.25
2022-08-20T10:24:52.639Z,65.52
2022-08-20T10:25:52.660Z,64.58
2022-08-20T10:26:52.620Z,65.76
2022-08-20T10:27:52.654Z,65.16
2022-08-20T10:28:52.598Z,63.84
2022-08-20T10:29:52.585Z,63.05
2022-08-20T10:30:52.594Z,61.85
2022-08-20T10:31:52.570Z,62.49
2022-08-20T10:32:52.570Z,62.22
2022-08-20T10:33:52.551Z,61.45
2022-08-20T10:34:52.545Z,60.25
2022-08-20T10:35:55.686Z,62.59
2022-08-20T10:36:53.522Z,63.25
2022-08-20T10:37:52.565Z,62.46
2022-08-20T10:38:52.502Z,63.27
2022-08-20T10:39:52.548Z,61.35
2022-08-20T10:40:52.763Z,61.94
2022-08-20T10:41:52.479Z,61.91
2022-08-20T10:42:52.468Z,61.82
2022-08-20T10:43:52.461Z,62.51
2022-08-20T10:44:52.451Z,64.05
2022-08-20T10:45:52.438Z,61.28
2022-08-20T10:46:56.997Z,60.02
2022-08-20T10:47:52.486Z,63.25
2022-08-20T10:48:52.410Z,63.41
2022-08-20T10:49:52.395Z,63.16
2022-08-20T10:50:52.392Z,61.89
2022-08-20T10:51:52.409Z,63.16
2022-08-20T10:52:52.375Z,61.80
2022-08-20T10:53:52.366Z,63.06
2022-08-20T10:54:52.363Z,61.37
2022-08-20T10:55:52.347Z,62.55
2022-08-20T10:56:52.372Z,61.62
2022-08-20T10:57:52.389Z,59.23
2022-08-20T10:58:52.334Z,60.97
2022-08-20T10:59:52.311Z,59.50
2022-08-20T11:00:52.306Z,61.65
2022-08-20T11:01:52.363Z,62.09
2022-08-20T11:02:52.302Z,63.25
2022-08-20T11:03:52.323Z,64.85
2022-08-20T11:04:52.268Z,65.50
2022-08-20T11:05:52.263Z,63.52
2022-08-20T11:06:52.251Z,62.62
2022-08-20T11:07:56.078Z,60.92
2022-08-20T11:08:52.237Z,62.29
2022-08-20T11:09:52.235Z,61.37
2022-08-20T11:10:52.219Z,62.91
2022-08-20T11:11:52.211Z,62.02
2022-08-20T11:12:52.236Z,61.57
2022-08-20T11:13:52.273Z,63.43
2022-08-20T11:14:52.179Z,64.23
2022-08-20T11:15:52.186Z,63.06
2022-08-20T11:16:52.167Z,61.59
2022-08-20T11:17:52.231Z,62.01
2022-08-20T11:18:52.148Z,63.65
2022-08-20T11:19:52.142Z,61.59
2022-08-20T11:20:52.132Z,62.95
2022-08-20T11:21:52.122Z,61.85
2022-08-20T11:22:52.127Z,60.89
2022-08-20T11:23:52.105Z,60.39
2022-08-20T11:24:52.168Z,60.38
2022-08-20T11:25:52.085Z,61.50
2022-08-20T11:26:52.078Z,61.98
2022-08-20T11:27:52.172Z,61.50
2022-08-20T11:28:52.056Z,63.56
2022-08-20T11:29:52.045Z,63.35
2022-08-20T11:30:52.041Z,62.49
2022-08-20T11:31:52.032Z,61.68
2022-08-20T11:32:52.058Z,60.14
2022-08-20T11:33:52.021Z,60.03
2022-08-20T11:34:52.012Z,61.69
2022-08-20T11:35:51.990Z,63.95
2022-08-20T11:36:51.994Z,63.63
2022-08-20T11:37:52.029Z,63.52
2022-08-20T11:38:51.981Z,60.21
2022-08-20T11:39:52.007Z,62.07
2022-08-20T11:40:51.949Z,62.18
2022-08-20T11:41:54.785Z,63.13
2022-08-20T11:43:13.705Z,60.88
2022-08-20T11:44:10.723Z,59.61
2022-08-20T11:44:53.908Z,61.77
2022-08-20T11:45:51.897Z,61.28
2022-08-20T11:46:51.885Z,61.69
2022-08-20T11:47:51.884Z,60.66
2022-08-20T11:48:51.887Z,62.21
2022-08-20T11:49:51.860Z,62.37
2022-08-20T11:50:51.851Z,62.27
2022-08-20T11:51:51.842Z,61.98
2022-08-20T11:52:51.831Z,62.25
2022-08-20T11:53:51.851Z,63.12
2022-08-20T11:54:54.733Z,62.84
2022-08-20T11:55:52.822Z,62.73
2022-08-20T11:56:51.821Z,64.61
2022-08-20T11:57:51.829Z,64.17
2022-08-20T11:58:51.825Z,62.71
2022-08-20T11:59:51.780Z,63.78
2022-08-20T12:00:51.766Z,64.12
2022-08-20T12:02:02.837Z,63.46
2022-08-20T12:02:52.911Z,64.06
2022-08-20T12:03:51.740Z,63.07
2022-08-20T12:04:51.745Z,63.94
2022-08-20T12:05:51.719Z,64.33
2022-08-20T12:06:51.709Z,65.61
2022-08-20T12:07:51.705Z,65.40
2022-08-20T12:08:51.690Z,65.33
2022-08-20T12:09:51.698Z,66.07
2022-08-20T12:10:51.670Z,65.21
2022-08-20T12:11:51.664Z,66.13
2022-08-20T12:12:51.655Z,66.47
2022-08-20T12:13:51.644Z,66.46
2022-08-20T12:14:51.835Z,64.90
2022-08-20T12:15:51.617Z,67.51
2022-08-20T12:16:51.609Z,66.72
2022-08-20T12:17:51.606Z,65.13
2022-08-20T12:18:51.595Z,67.03
2022-08-20T12:19:51.596Z,67.57
2022-08-20T12:20:51.573Z,67.99
2022-08-20T12:21:51.576Z,65.97
2022-08-20T12:22:51.558Z,64.94
2022-08-20T12:23:51.548Z,68.50
2022-08-20T12:24:51.555Z,69.28
2022-08-20T12:25:51.534Z,66.76
2022-08-20T12:26:51.516Z,67.71
2022-08-20T12:27:51.512Z,65.77
2022-08-20T12:28:51.501Z,66.99
2022-08-20T12:29:51.534Z,67.71
2022-08-20T12:30:51.483Z,66.00
2022-08-20T12:31:51.473Z,67.91
2022-08-20T12:32:51.464Z,67.54
2022-08-20T12:33:51.456Z,68.04
2022-08-20T12:34:51.475Z,67.89
2022-08-20T12:35:51.435Z,69.05
2022-08-20T12:36:51.441Z,68.28
2022-08-20T12:37:51.419Z,68.27
2022-08-20T12:38:51.407Z,68.74
2022-08-20T12:39:51.428Z,67.85
2022-08-20T12:40:51.399Z,67.66
2022-08-20T12:41:51.454Z,68.02
2022-08-20T12:42:51.374Z,66.52
2022-08-20T12:43:51.385Z,68.47
2022-08-20T12:44:51.364Z,67.31
2022-08-20T12:45:51.371Z,68.22
2022-08-20T12:46:51.332Z,65.63
2022-08-20T12:47:51.323Z,68.37
2022-08-20T12:48:51.366Z,66.31
2022-08-20T12:49:51.309Z,66.87
2022-08-20T12:50:51.338Z,68.94
2022-08-20T12:51:51.284Z,69.57
2022-08-20T12:52:51.274Z,67.64